Weather observations for the past three days for
Detroit Lakes Airport-Wething Field
Metric (Imperial)
Date Time (cdt) Wind (kph) Vis. (km) Weather Sky Cond. Temperature (ºC) Relative Humidity Wind Chill (°C) Heat Index (°C) Pressure Precipitation (cm)
Air Dwpt 6 hour altimeter (cm) sea level (mb) 1 hr 3 hr 6 hr
Max. Min.
07 01:55 SW 7 16.09 Fair CLR 1 -3.4 73% -1 75.87 0.0
07 01:35 SW 6 16.09 Fair CLR 1.1 -3 74% 75.87 0.0
07 01:15 S 7 16.09 Fair CLR 1 -3.4 73% -1 75.9 0.0
07 00:55 SW 6 16.09 Fair CLR 1.5 -4 5.3 1.2 67% 75.9 0.0
07 00:35 S 6 16.09 Fair CLR 1.3 -4.3 67% 75.9 0.0
07 00:15 SW 7 16.09 Fair CLR 1.6 -4.2 66% -0 75.92 0.0
06 23:55 SW 7 16.09 A Few Clouds FEW085 1.6 -4.4 65% -0 75.92 0.0
06 23:40 SW 9 16.09 Fair CLR 2 -4.4 63% -0 75.92 0.0
06 23:15 SW 9 16.09 Mostly Cloudy FEW065 BKN085 2.3 -4 63% -0 75.95 0.0
06 22:55 SW 11 16.09 Overcast OVC080 2.8 -4 61% 0 75.95 0.0
06 22:35 SW 9 16.09 Overcast OVC080 2.8 -4.2 60% 1 75.97 0.0
06 22:15 SW 7 16.09 Overcast FEW044 OVC080 2.9 -4.8 57% 1 76 0.0
06 21:55 SW 7 16.09 Overcast OVC075 3 -4.8 57% 1 76 0.0
06 21:35 SW 7 16.09 Overcast FEW050 OVC075 3.1 -4.8 57% 1 76 0.0
06 21:15 SW 9 16.09 Overcast FEW050 OVC075 3.3 -4.9 55% 1 76 0.0
06 20:55 SW 7 14.48 Overcast OVC065 3.6 -4.8 55% 2 76 0.0
06 20:35 W 6 14.48 Overcast OVC070 3.9 -4.9 53% 76 0.0
06 20:15 W 9 14.48 Overcast FEW048 OVC070 4.2 -5.2 51% 2 76 0.0
06 19:55 W 11 14.48 Overcast OVC070 4.9 -5.4 48% 3 76 0.0
06 19:35 W 13 14.48 Overcast OVC060 5.1 -5.4 47% 3 76 0.0
06 19:15 W 11 14.48 Overcast OVC060 5 -5 49% 3 76.02 0.0
06 18:55 W 15 14.48 Overcast OVC060 4.9 -5.4 5.2 4.4 48% 2 76.02 0.0
06 18:35 W 11 14.48 Overcast FEW045 OVC060 5 -5 49% 3 76.05 0.0
06 18:15 W 15 9.66 Overcast with Haze SCT046 OVC055 4.8 -5 49% 2 76.05 0.0
06 17:55 W 13 8.05 Overcast with Haze OVC050 4.7 -5 50% 2 76.05 0.0
06 17:35 W 11 6.44 Overcast with Haze OVC049 4.7 -5 50% 2 76.07 0.0
06 17:15 NW 11 4.83 Overcast with Haze OVC045 4.6 -5 50% 2 76.07 0.0
06 16:55 W 15 8.05 Overcast with Haze OVC044 4.8 -5.8 47% 2 76.07 0.0
06 16:35 NW 13 6.44 Overcast with Haze OVC043 4.8 -5.2 49% 2 76.07 0.0
06 16:15 W 17 9.66 Overcast with Haze OVC044 4.8 -5.5 48% 2 76.07 0.0
06 15:55 NW 11 8.05 Overcast with Haze OVC045 4.9 -5.4 48% 3 76.1 0.0
06 15:35 NW 13 16.09 Overcast OVC042 5.1 -4.9 49% 3 76.1 0.0
06 15:15 NW 11 16.09 Overcast OVC042 4.7 -4.7 51% 2 76.1 0.0
06 14:55 NW 19 16.09 Overcast SCT042 OVC050 5 -5.4 47% 2 76.1 0.0
06 14:35 NW 19 16.09 Overcast OVC049 5 -5.9 46% 2 76.12 0.0
06 14:15 NW 17 16.09 Overcast OVC045 4.7 -5.2 49% 1 76.12 0.0
06 13:55 NW 19 14.48 Light Rain OVC047 4.4 -5.3 50% 1 76.12 0.0
06 13:35 NW 15 16.09 Overcast OVC047 4.7 -5.5 48% 2 76.12 0.0
06 13:15 W 15 G 30 16.09 Overcast OVC044 4.5 -6 47% 2 76.12 0.0
06 12:55 NW 17 16.09 Overcast BKN043 OVC049 4.7 -5.9 4.9 0.3 47% 1 76.15 0.0
06 12:35 NW 17 16.09 Overcast OVC041 4.7 -5.7 47% 1 76.15 0.0
06 12:15 NW 17 G 28 16.09 Overcast OVC039 4.4 -5.6 49% 1 76.17 0.0
06 11:55 NW 13 16.09 Overcast OVC037 4.2 -5.5 50% 1 76.17 0.0
06 11:35 NW 17 16.09 Overcast OVC037 3.4 -5.8 51% -0 76.2 0.0
06 11:15 NW 15 16.09 Overcast OVC038 3.6 -5.6 51% 0 76.2 0.0
06 10:55 N 15 16.09 Overcast OVC036 3.4 -5.6 52% 0 76.2 0.0
06 10:35 NW 17 16.09 Overcast OVC036 2.8 -6.3 52% -1 76.2 0.0
06 10:15 NW 19 G 28 16.09 Overcast BKN035 OVC100 2.5 -5.7 55% -1 76.2 0.0
06 09:55 NW 19 16.09 Overcast BKN035 OVC043 2 -6 56% -2 76.2 0.0
06 09:35 NW 20 16.09 Overcast OVC040 1.9 -6 56% -2 76.2 0.0
06 09:15 NW 17 16.09 Overcast OVC040 1.5 -6 58% -2 76.2 0.0
06 08:55 NW 15 16.09 Overcast OVC037 1.2 -5.5 61% -3 76.2 0.0
06 08:35 NW 13 16.09 Overcast OVC037 1 -5.5 62% -2 76.2 0.0
06 08:15 NW 15 16.09 Overcast OVC035 0.9 -5.4 63% -3 76.2 0.0
06 07:55 NW 15 16.09 Overcast OVC034 0.6 -5.3 65% -3 76.2 0.0
06 07:35 NW 13 16.09 Overcast OVC034 0.5 -5.3 65% -3 76.17 0.0
06 07:15 NW 9 16.09 Overcast OVC036 0.4 -5.4 65% -2 76.17 0.0
06 06:55 NW 13 16.09 Overcast OVC037 0.3 -5.3 0.9 0.2 66% -3 76.15 0.0
06 06:35 NW 11 16.09 Overcast OVC037 0.2 -5.4 66% -3 76.12 0.0
06 06:15 NW 13 16.09 Overcast OVC037 0.2 -5.5 66% -3 76.12 0.0
06 05:55 NW 13 16.09 Overcast OVC037 0.3 -5.7 64% -3 76.1 0.0
06 05:35 NW 11 16.09 Overcast OVC036 0.3 -5.8 64% -3 76.1 0.0
06 05:15 NW 13 16.09 Overcast OVC035 0.2 -5.3 67% -3 76.1 0.0
06 04:55 NW 11 16.09 Overcast OVC036 0.3 -4.9 68% -3 76.1 0.0
06 04:35 NW 13 16.09 Overcast OVC036 0.3 -5 68% -3 76.1 0.0
06 04:15 NW 13 16.09 Overcast OVC037 0.3 -4.8 69% -3 76.1 0.0
06 03:55 NW 13 16.09 Overcast OVC037 0.4 -5 67% -3 76.07 0.0
06 03:35 NW 11 16.09 Overcast OVC038 0.4 -4.8 68% -3 76.07 0.0
06 03:15 NW 11 16.09 Overcast OVC038 0.4 -4.8 68% -3 76.07 0.0
06 02:55 NW 13 16.09 Overcast OVC038 0.6 -5.2 65% -3 76.07 0.0
06 02:35 N 13 16.09 Overcast OVC037 0.7 -5 66% -3 76.07 0.0
06 02:15 N 17 16.09 Overcast OVC037 0.7 -4.9 67% -3 76.07 0.0
06 01:55 N 15 16.09 Overcast OVC037 0.8 -5.1 65% -3 76.07 0.0
06 01:35 N 15 16.09 Overcast OVC037 0.8 -4.6 68% -3 76.07 0.0
06 01:15 NW 13 16.09 Overcast OVC036 0.9 -5.2 64% -3 76.07 0.0
06 00:55 N 15 16.09 Overcast OVC037 1 -5.3 3.9 1 63% -3 76.07 0.0
06 00:35 N 19 16.09 Overcast OVC037 1 -5.2 64% -3 76.07 0.0
06 00:15 N 19 16.09 Overcast OVC038 1.1 -5 64% -3 76.07 0.0
05 23:55 N 15 16.09 Overcast OVC038 1.3 -4.7 65% -2 76.05 0.0
05 23:35 N 17 16.09 Overcast OVC040 1.4 -4.9 63% -3 76.05 0.0
05 23:15 N 22 16.09 Overcast OVC044 1.5 -5 62% -3 76.02 0.0
05 22:55 N 19 16.09 Overcast OVC046 1.5 -5.2 61% -3 76.02 0.0
05 22:35 N 17 16.09 Overcast OVC046 1.5 -5.1 62% -2 76.02 0.0
05 22:15 N 19 16.09 Overcast OVC045 1.7 -5.4 60% -2 76.02 0.0
05 21:55 N 19 16.09 Overcast OVC046 2 -5.5 58% -2 76.02 0.0
05 21:35 N 20 16.09 Overcast OVC047 2.2 -5.7 56% -2 76 0.0
05 21:15 N 22 16.09 Overcast OVC044 2.5 -5.6 56% -2 76 0.0
05 20:55 N 20 16.09 Overcast OVC044 2.7 -5.8 54% -1 75.97 0.0
05 20:35 NW 22 14.48 Overcast OVC044 3 -5.8 53% -1 75.95 0.0
05 20:15 NW 19 14.48 Overcast OVC045 3.2 -6.3 50% -1 75.95 0.0
05 19:55 NW 22 14.48 Overcast OVC045 3.4 -6.1 50% -1 75.92 0.0
05 19:35 NW 22 G 30 16.09 Overcast OVC046 3.6 -6.2 49% -1 75.92 0.0
05 19:15 NW 20 16.09 Overcast OVC046 3.8 -6.6 47% -0 75.92 0.0
05 18:55 NW 28 16.09 Overcast OVC046 4.1 -6.4 5 2.9 47% -1 75.92 0.0
05 18:35 NW 22 16.09 Overcast OVC045 4.1 -6.1 48% 0 75.92 0.0
05 18:15 NW 26 G 31 14.48 Overcast OVC045 4.5 -6 47% 0 75.92 0.0
05 17:55 NW 17 16.09 Overcast OVC044 4.4 -6.4 46% 1 75.9 0.0
05 17:35 NW 22 G 31 14.48 Overcast OVC043 4.6 -5.9 47% 1 75.9 0.0
05 17:15 NW 24 G 35 16.09 Overcast OVC043 4.5 -6.2 46% 0 75.9 0.0
05 16:55 NW 19 G 30 16.09 Overcast OVC043 4.4 -6 47% 1 75.9 0.0
05 16:35 NW 20 G 30 16.09 Overcast OVC042 4.5 -5.9 47% 1 75.9 0.0
05 16:15 N 28 G 37 16.09 Overcast OVC043 4.7 -6 46% 0 75.9 0.0
05 15:55 NW 24 G 33 16.09 Overcast OVC042 4 -6.3 47% -0 75.9 0.0
05 15:35 NW 26 16.09 Overcast OVC040 4.1 -6.1 48% -0 75.9 0.0
05 15:15 NW 19 G 31 16.09 Overcast OVC038 3.5 -6.2 49% -0 75.9 0.0
05 14:55 NW 20 G 35 16.09 Overcast OVC037 3.2 -6.4 50% -1 75.92 0.0
05 14:35 NW 33 16.09 Overcast and Breezy OVC036 3 -6.3 51% -2 75.9 0.0
05 14:15 NW 26 G 31 16.09 Overcast OVC035 3.5 -5.6 52% -1 75.9 0.0
05 13:55 NW 24 G 39 16.09 Overcast OVC034 3.3 -5.6 52% -1 75.87 0.0
05 13:35 NW 26 G 37 16.09 Overcast OVC034 2.9 -5.7 54% -2 75.87 0.0
05 13:15 NW 26 G 37 16.09 Overcast OVC036 3 -5.4 54% -2 75.87 0.0
05 12:55 NW 28 G 39 16.09 Overcast OVC034 3.1 -5.3 3.3 -0.8 54% -2 75.87 0.0
05 12:35 N 28 16.09 Overcast OVC034 3.3 -4.9 55% -2 75.84 0.0
05 12:15 NW 22 G 37 16.09 Overcast BKN036 OVC043 3 -5 56% -1 75.84 0.0
05 11:55 NW 24 G 35 14.48 Overcast OVC035 2.7 -5.3 56% -2 75.82 0.0
05 11:35 W 20 14.48 Overcast BKN034 OVC043 2.7 -4.7 59% -1 75.82 0.0
05 11:15 NW 24 14.48 Overcast BKN033 OVC044 2.6 -4.5 60% -2 75.79 0.0
05 10:55 NW 22 G 31 16.09 Overcast OVC033 2.9 -4.7 58% -1 75.79 0.0
05 10:35 NW 17 14.48 Overcast BKN029 OVC035 2.7 -4.6 59% -1 75.77 0.0
05 10:15 NW 20 16.09 Overcast BKN027 OVC036 2.7 -4.6 59% -1 75.77 0.0
05 09:55 NW 19 G 31 14.48 Overcast BKN026 OVC037 1.4 -4.3 66% -3 75.77 0.0
05 09:35 N 20 16.09 Overcast FEW026 OVC038 1.7 -4.2 65% -3 75.77 0.0
05 09:15 N 20 14.48 Mostly Cloudy BKN039 1.2 -4.2 68% -3 75.74 0.0
05 08:55 N 19 14.48 Overcast OVC042 0.6 -4 72% -4 75.74 0.0
05 08:35 NW 15 14.48 Overcast SCT034 OVC042 0.2 -4.1 73% -4 75.72 0.0
05 08:15 N 19 14.48 Overcast BKN034 OVC042 0.1 -4 74% -4 75.72 0.0
05 07:55 NW 17 14.48 Overcast BKN035 BKN044 OVC055 -0.2 -4.1 75% -5 75.69 0.0
05 07:35 NW 15 14.48 Mostly Cloudy FEW039 BKN055 0 -3.9 75% -4 75.67 0.0
05 07:15 NW 13 14.48 Overcast OVC055 -0.6 -4.3 76% -4 75.67 0.0
05 06:55 NW 11 16.09 Overcast OVC055 -0.5 -4.2 0.4 -1 76% -4 75.64 0.0
05 06:35 NW 13 14.48 Overcast FEW039 OVC055 -0.5 -4.7 74% -4 75.64 0.0
05 06:15 NW 9 14.48 Overcast SCT041 BKN055 OVC080 -0.8 -4.6 76% -4 75.64 0.0
05 05:55 NW 15 16.09 Overcast SCT044 BKN050 OVC075 -0.4 -5 71% -4 75.62 0.0
05 05:35 NW 11 16.09 Overcast FEW049 OVC075 -0.3 -5 71% -4 75.62 0.0
05 05:15 NW 13 16.09 Overcast OVC075 -0.1 -5.2 69% -4 75.62 0.0
05 04:55 NW 13 16.09 Overcast OVC080 0 -5 69% -4 75.62 0.0
05 04:35 NW 13 16.09 Overcast OVC075 0.1 -5.2 68% -3 75.62 0.0
05 04:15 NW 15 16.09 Overcast OVC075 0.3 -4.9 68% -4 75.62 0.0
05 03:55 NW 9 16.09 Overcast OVC075 0.3 -4.4 71% -2 75.59 0.0
05 03:35 NW 9 16.09 Overcast OVC075 0.4 -4.4 71% -2 75.59 0.0
05 03:15 NW 9 16.09 Overcast OVC075 0.4 -4 73% -2 75.59 0.0
05 02:55 NW 9 16.09 Overcast OVC075 0.1 -4.1 74% -3 75.57 0.0
05 02:35 NW 11 16.09 Overcast OVC075 0.1 -3.8 75% -3 75.57 0.0
05 02:15 NW 11 16.09 Mostly Cloudy BKN080 -0.1 -3.5 78% -3 75.57 0.0
05 01:55 NW 9 16.09 A Few Clouds FEW080 -0.8 -3.1 85% -4 75.57 0.0
05 01:35 NW 7 16.09 Partly Cloudy SCT080 -0.9 -3 86% -3 75.57 0.0
05 01:15 NW 9 16.09 Mostly Cloudy BKN080 -0.5 -2.5 87% -3 75.59 0.0
05 00:55 NW 13 16.09 A Few Clouds FEW085 -0.5 -1.6 6 -0.5 92% -4 75.57 0.0
05 00:35 NW 11 16.09 Mostly Cloudy BKN085 -0.2 -2 88% -3 75.57 0.0
05 00:15 NW 17 16.09 Overcast FEW070 OVC085 0.9 -2.6 78% -3 75.57 0.0
04 23:55 NW 9 16.09 Overcast OVC085 1.6 -2.3 76% -1 75.54 0.0
04 23:35 NW 15 16.09 Overcast OVC085 1.9 -2.3 74% -2 75.54 0.0
04 23:15 NW 15 16.09 Overcast BKN060 OVC085 2.5 -2.2 71% -1 75.51 0.0
04 22:55 NW 19 16.09 Overcast SCT060 OVC080 3 -1.7 72% -1 75.51 0.0
04 22:35 NW 22 16.09 Overcast OVC080 3.2 -1.6 71% -1 75.51 0.0
04 22:15 NW 15 16.09 Overcast OVC080 3.5 -1.7 69% 0 75.49 0.0
04 21:55 NW 13 16.09 Overcast FEW060 OVC085 3.6 -1.8 68% 1 75.49 0.0
04 21:35 NW 13 16.09 Overcast SCT060 OVC085 3.5 -1.6 70% 1 75.46 0.0
04 21:15 NW 15 16.09 Overcast SCT070 OVC085 3.8 -2.3 65% 1 75.44 0.0
04 20:55 NW 15 16.09 Mostly Cloudy BKN080 3.7 -2.3 65% 1 75.41 0.0
04 20:35 NW 17 14.48 Mostly Cloudy BKN080 4.1 -2.8 61% 1 75.41 0.0
04 20:15 NW 19 16.09 Mostly Cloudy BKN075 4.3 -3 59% 1 75.39 0.0
04 19:55 NW 24 16.09 Overcast FEW055 OVC075 5.2 -2.3 59% 1 75.36 0.0
04 19:35 NW 28 G 43 16.09 Overcast BKN060 OVC070 5.2 -2.2 59% 1 75.36 0.0
04 19:15 NW 31 G 43 16.09 Overcast SCT046 OVC065 5.9 -2.7 54% 1 75.34 0.0
04 18:55 NW 24 G 41 16.09 Overcast OVC065 6.4 -4.5 8.1 6 46% 3 75.31 0.0
04 18:35 NW 33 G 44 14.48 Overcast and Breezy OVC060 6.5 -4.6 45% 2 75.31 0.0
04 18:15 NW 28 G 50 16.09 Overcast BKN060 OVC070 6.6 -2.8 51% 3 75.31 0.0
04 17:55 NW 28 G 44 16.09 Overcast OVC065 6.7 -2.8 51% 3 75.29 0.0
04 17:35 NW 30 G 50 14.48 Overcast SCT049 OVC060 6.8 -2.5 52% 3 75.29 0.0
04 17:15 NW 20 G 33 16.09 Overcast BKN048 OVC065 7.3 -3.8 46% 4 75.26 0.0
04 16:55 NW 24 G 46 16.09 Overcast BKN049 OVC070 7.9 -3.8 44% 5 75.26 0.0
04 16:35 NW 30 G 48 16.09 Overcast BKN050 OVC060 7.4 -4 45% 4 75.23 0.0
04 16:15 NW 28 G 43 16.09 Overcast BKN050 OVC070 7.2 -4.3 44% 3 75.23 0.0
04 15:55 NW 31 G 43 16.09 Overcast BKN055 OVC070 7.3 -5 42% 3 75.23 0.0
04 15:35 NW 33 G 43 16.09 Overcast and Breezy OVC060 7.8 -5 40% 4 75.23 0.0
04 15:15 NW 33 G 48 16.09 Overcast and Breezy BKN047 OVC065 7.4 -5 41% 3 75.23 0.0
04 14:55 NW 31 G 50 16.09 Overcast BKN049 OVC060 6.8 -4.4 45% 3 75.23 0.0
04 14:35 NW 31 G 52 16.09 Overcast BKN044 OVC055 6.4 -3.1 51% 2 75.23 0.0
04 14:15 NW 37 G 48 16.09 Overcast and Breezy BKN043 OVC055 6.2 -3.1 52% 1 75.23 0.0
04 13:55 NW 33 G 43 14.48 Overcast and Breezy BKN042 OVC050 6.7 -2.4 53% 2 75.21 0.0
04 13:35 W 31 G 56 16.09 Overcast OVC046 6.6 -2.5 53% 2 75.18 0.0
04 13:15 NW 28 G 52 16.09 Overcast OVC048 6.9 -3.8 47% 3 75.16 0.0
04 12:55 NW 37 G 48 14.48 Overcast and Breezy OVC048 6.7 -4.9 7.8 5.4 44% 2 75.16 0.0
04 12:35 NW 35 G 44 16.09 Overcast and Breezy OVC047 7.3 -4.3 44% 3 75.13 0.0
04 12:15 NW 30 G 57 16.09 Overcast OVC042 6.4 -3.5 50% 2 75.13 0.0
04 11:55 NW 43 G 59 16.09 Overcast and Windy OVC043 6.9 -3.4 48% 2 75.11 0.0
04 11:35 NW 33 G 54 16.09 Mostly Cloudy and Breezy BKN038 BKN047 7.8 -3 47% 4 75.08 0.0
04 11:15 NW 39 G 54 16.09 Overcast and Breezy BKN033 OVC046 6.1 -1.3 59% 1 75.08 0.0
04 10:55 NW 30 G 41 16.09 Overcast BKN027 OVC036 5.7 -0.2 66% 1 75.06 0.0
04 10:35 NW 39 G 50 14.48 Overcast and Breezy OVC033 6.3 0 64% 1 75.06 0.0
04 10:15 NW 30 G 50 16.09 Overcast FEW029 BKN036 OVC046 6.2 0 65% 2 75.03 0.0
04 09:55 NW 35 G 41 16.09 Overcast and Breezy FEW024 SCT031 OVC040 6.4 0.8 68% 2 75.01 0.0
04 09:35 NW 26 G 39 16.09 Overcast BKN025 OVC030 6.1 1.9 75% 2 75.01 0.0
04 09:15 NW 30 G 41 16.09 Overcast SCT021 OVC028 6.2 2.9 80% 2 74.98 0.0
04 08:55 NW 30 G 41 16.09 Overcast FEW018 SCT028 OVC036 6.1 3 81% 2 74.96 0.0
04 08:35 NW 19 G 41 16.09 Overcast BKN018 OVC034 5.5 3.4 87% 2 74.96 0.0
04 08:15 NW 31 G 43 16.09 Overcast OVC018 5.6 3.4 86% 1 74.93 0.0
04 07:55 NW 28 G 50 16.09 Overcast OVC020 5.9 3.1 82% 2 74.9 0.0
04 07:35 NW 30 G 44 16.09 Overcast OVC020 6.2 3 80% 2 74.88 0.0
04 07:15 NW 28 G 48 16.09 Overcast BKN023 BKN035 OVC120 6.3 2.8 79% 2 74.83 0.0
04 06:55 NW 26 G 46 16.09 Overcast SCT024 BKN029 OVC035 7.9 3.7 16.7 7.9 75% 4 74.78 0.0
04 06:35 NW 30 G 50 14.48 Overcast SCT029 BKN035 OVC100 8.5 3.7 72% 5 74.75 0.0
04 06:15 W 26 G 37 16.09 Overcast SCT032 OVC100 8.7 3.8 72% 6 74.73 0.0
04 05:55 W 22 G 31 16.09 Overcast FEW035 OVC100 8.8 3.5 70% 6 74.73 0.0
04 05:35 W 19 16.09 Overcast BKN095 OVC120 8.9 3.4 69% 6 74.7 0.0
04 05:15 W 17 16.09 Overcast OVC090 8.7 3.9 72% 6 74.68 0.0
04 04:55 NW 11 16.09 Overcast OVC075 8.6 4.2 74% 7 74.65 0.0
04 04:35 NW 13 16.09 Overcast OVC070 8.7 3.8 72% 7 74.63 0.0
04 04:15 NW 11 16.09 Overcast OVC060 8.8 3.9 72% 7 74.68 0.0
04 03:55 NW 20 16.09 Overcast OVC055 9 3.7 70% 6 74.7 0.0
04 03:35 NW 22 G 39 16.09 Overcast OVC048 9.2 3.6 68% 6 74.7 0.0
04 03:15 NW 31 G 50 16.09 Mostly Cloudy SCT045 BKN130 BKN170 9.3 3.5 67% 6 74.68 0.0
04 02:55 NW 50 G 69 16.09 Mostly Cloudy and Windy BKN120 BKN140 10 3.2 63% 6 74.65 0.0
04 02:35 NW 37 G 59 14.48 Mostly Cloudy and Breezy BKN130 11.2 3.8 61% 74.63 0.0
04 02:15 W 30 G 41 16.09 Partly Cloudy FEW110 SCT140 15.8 1.8 39% 74.55 0.0
Date Time (cdt) Wind (kph) Vis. (km) Weather Sky Cond. Air Dwpt Max. Min. Relative Humidity Wind Chill (°C) Heat Index (°C) altimeter (cm) sea level (mb) 1 hr 3 hr 6 hr
6 hour
Temperature (ºC) Pressure Precipitation (cm)